Time;durP1;ratioP1;P1;durP2;ratioP2;P2;SDS_P1;SDS_P2;PMS_P1;PMS_P2;Temp;Humidity;BMP_temperature;BMP_pressure;BME280_temperature;BME280_humidity;BME280_pressure;Samples;Min_cycle;Max_cycle;Signal;HPM_P1;HPM_P2
2021/12/24 00:01:29;;;;;;;23.27;16.80;;;3.90;99.90;;;;;;4952802;28;20269;-55
2021/12/24 00:03:55;;;;;;;20.93;16.27;;;3.90;99.90;;;;;;4952706;29;20226;-52
2021/12/24 00:06:20;;;;;;;22.13;16.70;;;3.90;99.90;;;;;;4952541;29;20724;-56
2021/12/24 00:08:47;;;;;;;21.87;17.47;;;3.90;99.90;;;;;;5014277;28;20709;-53
2021/12/24 00:11:13;;;;;;;24.53;18.37;;;3.90;99.90;;;;;;5033100;28;20164;-54
2021/12/24 00:13:43;;;;;;;22.30;17.37;;;3.90;99.90;;;;;;5032906;28;20191;-56
2021/12/24 00:16:57;;;;;;;22.33;16.53;;;3.90;99.90;;;;;;5032778;28;20168;-55
2021/12/24 00:19:19;;;;;;;24.27;18.27;;;4.00;99.90;;;;;;5025514;28;20188;-57
2021/12/24 00:35:32;;;;;;;23.30;18.53;;;4.00;99.90;;;;;;4990634;28;20211;-55
2021/12/24 00:38:01;;;;;;;25.53;19.07;;;4.00;99.90;;;;;;4990836;28;20184;-54
2021/12/24 00:40:27;;;;;;;23.70;18.80;;;4.00;99.90;;;;;;4990682;28;20188;-52
2021/12/24 00:42:55;;;;;;;24.97;18.20;;;4.00;99.90;;;;;;4990817;28;20183;-53
2021/12/24 00:45:24;;;;;;;24.30;18.50;;;4.00;99.90;;;;;;4990424;28;20247;-53
2021/12/24 00:47:51;;;;;;;29.83;21.20;;;4.00;99.90;;;;;;4990781;28;20215;-53
2021/12/24 00:50:21;;;;;;;27.10;20.90;;;4.00;99.90;;;;;;4990613;28;20610;-55
2021/12/24 00:52:53;;;;;;;24.07;18.70;;;4.10;99.90;;;;;;4990763;28;20734;-55
2021/12/24 00:55:27;;;;;;;25.53;19.90;;;3.90;99.90;;;;;;4990480;28;20567;-52
2021/12/24 00:57:56;;;;;;;26.80;20.17;;;3.80;99.90;;;;;;4990558;28;20189;-55
2021/12/24 01:00:23;;;;;;;27.43;20.13;;;3.70;99.90;;;;;;4990195;28;20208;-56
2021/12/24 01:02:51;;;;;;;26.10;19.40;;;3.80;99.90;;;;;;4992640;28;20181;-53
2021/12/24 01:05:18;;;;;;;24.30;18.23;;;3.70;99.90;;;;;;5031830;28;20294;-51
2021/12/24 01:07:45;;;;;;;25.07;18.70;;;3.60;99.90;;;;;;5032080;28;20200;-54
2021/12/24 01:10:12;;;;;;;25.83;19.33;;;3.50;99.90;;;;;;5032068;28;20191;-56
2021/12/24 01:12:38;;;;;;;27.37;20.23;;;3.30;99.90;;;;;;5031843;28;20179;-49
2021/12/24 01:15:05;;;;;;;28.93;20.60;;;3.20;99.90;;;;;;5014036;28;20172;-55
2021/12/24 01:18:25;;;;;;;27.57;20.07;;;3.20;99.90;;;;;;5032000;28;20167;-54
2021/12/24 01:20:26;;;;;;;27.53;19.40;;;3.20;99.90;;;;;;5021190;28;20196;-54
2021/12/24 01:26:08;;;;;;;36.63;23.27;;;3.40;99.90;;;;;;4951300;29;20210;-54
2021/12/24 01:28:48;;;;;;;30.70;22.43;;;3.50;99.90;;;;;;4952841;28;20174;-54
2021/12/24 01:44:56;;;;;;;26.50;19.40;;;3.80;99.90;;;;;;4951327;29;20307;-56
2021/12/24 01:47:21;;;;;;;23.43;18.37;;;3.80;99.90;;;;;;4951781;29;20202;-56
2021/12/24 01:49:47;;;;;;;25.90;19.17;;;3.80;99.90;;;;;;4952767;29;20166;-51
2021/12/24 01:52:15;;;;;;;26.30;18.23;;;3.80;99.90;;;;;;4951288;28;20279;-57
2021/12/24 01:54:41;;;;;;;28.87;20.27;;;3.80;99.90;;;;;;4950756;29;20210;-56
2021/12/24 01:57:07;;;;;;;23.93;18.23;;;3.90;99.90;;;;;;4951424;28;20687;-56
2021/12/24 01:59:33;;;;;;;24.97;19.20;;;3.90;99.90;;;;;;4951208;29;20182;-54
2021/12/24 02:01:58;;;;;;;23.73;18.30;;;3.90;99.90;;;;;;5008457;28;20187;-55
2021/12/24 02:04:24;;;;;;;24.40;18.77;;;4.00;99.90;;;;;;5031249;28;20191;-52
2021/12/24 02:06:50;;;;;;;26.63;19.67;;;4.00;99.90;;;;;;5031225;28;20287;-53
2021/12/24 02:09:16;;;;;;;22.83;18.13;;;4.10;99.90;;;;;;5031420;28;20630;-57
2021/12/24 02:11:42;;;;;;;25.00;19.33;;;4.10;99.90;;;;;;5032431;28;20176;-56
2021/12/24 02:14:10;;;;;;;24.17;19.33;;;4.10;99.90;;;;;;5035178;28;20544;-52
2021/12/24 02:28:17;;;;;;;25.93;19.97;;;4.10;99.90;;;;;;5035358;28;20705;-53
2021/12/24 02:30:06;;;;;;;26.87;20.07;;;3.90;99.90;;;;;;5034958;28;20663;-56
2021/12/24 02:32:32;;;;;;;23.73;18.53;;;3.90;99.90;;;;;;5034803;28;20200;-57
2021/12/24 02:34:58;;;;;;;25.57;19.00;;;3.80;99.90;;;;;;5034492;28;20262;-56
2021/12/24 02:37:23;;;;;;;24.13;18.20;;;3.80;99.90;;;;;;5034884;28;20636;-53
2021/12/24 02:39:49;;;;;;;27.10;19.93;;;3.70;99.90;;;;;;5034725;28;20229;-53
2021/12/24 02:42:18;;;;;;;24.27;19.00;;;3.70;99.90;;;;;;5034735;28;20171;-51
2021/12/24 02:44:45;;;;;;;24.40;18.67;;;3.70;99.90;;;;;;5034383;28;20568;-51
2021/12/24 02:47:36;;;;;;;26.50;18.27;;;3.60;99.90;;;;;;5034455;28;20207;-53
2021/12/24 02:55:15;;;;;;;23.60;17.93;;;3.80;99.90;;;;;;5034536;28;20214;-57
2021/12/24 02:57:41;;;;;;;24.63;18.80;;;4.00;99.90;;;;;;5034453;28;20179;-56
2021/12/24 03:00:15;;;;;;;26.10;19.60;;;4.10;99.90;;;;;;5034479;28;20591;-53
2021/12/24 03:02:46;;;;;;;24.90;19.33;;;4.10;99.90;;;;;;5034135;28;20186;-56
2021/12/24 03:05:14;;;;;;;27.67;20.10;;;4.20;99.90;;;;;;5034315;28;20171;-57
2021/12/24 03:07:42;;;;;;;26.80;19.77;;;4.20;99.90;;;;;;5034137;28;20239;-56
2021/12/24 03:10:13;;;;;;;25.40;18.83;;;4.30;99.90;;;;;;5034284;28;20168;-53
2021/12/24 03:12:40;;;;;;;25.60;20.33;;;4.30;99.90;;;;;;5033969;28;20168;-53
2021/12/24 03:15:07;;;;;;;24.07;18.93;;;4.30;99.90;;;;;;5033743;28;20172;-54
2021/12/24 03:17:33;;;;;;;24.60;18.47;;;4.30;99.90;;;;;;5034037;28;20645;-52
2021/12/24 03:20:05;;;;;;;25.03;18.67;;;4.30;99.90;;;;;;5034253;28;20187;-52
2021/12/24 03:24:56;;;;;;;25.67;19.67;;;4.20;99.90;;;;;;5033713;28;20858;-57
2021/12/24 03:27:22;;;;;;;23.60;18.00;;;4.20;99.90;;;;;;5033709;28;20286;-51
2021/12/24 03:29:49;;;;;;;23.63;19.13;;;4.10;99.90;;;;;;5033800;28;20196;-55
2021/12/24 03:32:15;;;;;;;25.10;19.33;;;4.10;99.90;;;;;;5033815;28;20222;-54
2021/12/24 03:34:41;;;;;;;25.47;18.57;;;4.20;99.90;;;;;;5033351;28;20188;-51
2021/12/24 03:37:07;;;;;;;25.53;19.40;;;4.30;99.90;;;;;;5033777;28;20176;-55
2021/12/24 03:39:34;;;;;;;26.33;19.23;;;4.40;99.90;;;;;;5033635;28;20522;-56
2021/12/24 03:42:00;;;;;;;23.37;18.23;;;4.30;99.90;;;;;;5033585;28;20236;-51
2021/12/24 03:44:32;;;;;;;23.73;17.93;;;4.20;99.90;;;;;;5033313;28;20192;-57
2021/12/24 03:47:06;;;;;;;24.03;18.47;;;4.20;99.90;;;;;;5033388;28;20628;-57
2021/12/24 03:49:39;;;;;;;22.43;18.00;;;4.30;99.90;;;;;;5033424;28;20172;-59
2021/12/24 03:54:57;;;;;;;23.20;17.63;;;4.40;99.90;;;;;;5032898;28;20249;-57
2021/12/24 03:57:29;;;;;;;22.30;17.73;;;4.50;99.90;;;;;;5033392;28;20253;-53
2021/12/24 03:59:56;;;;;;;25.30;18.40;;;4.60;99.90;;;;;;5033217;28;20168;-56
2021/12/24 04:02:21;;;;;;;24.20;18.83;;;4.60;99.90;;;;;;5033209;28;20175;-57
2021/12/24 04:04:47;;;;;;;24.10;19.30;;;4.60;99.90;;;;;;5032803;28;20202;-56
2021/12/24 04:07:13;;;;;;;23.13;18.40;;;4.70;99.90;;;;;;5033101;28;20184;-56
2021/12/24 04:09:47;;;;;;;26.70;20.57;;;4.70;99.90;;;;;;5032884;28;20242;-57
2021/12/24 04:12:13;;;;;;;24.83;19.17;;;4.80;99.90;;;;;;5033073;28;20170;-54
2021/12/24 04:14:39;;;;;;;22.57;18.33;;;4.80;99.90;;;;;;5032574;28;20196;-53
2021/12/24 04:17:06;;;;;;;21.17;17.83;;;4.70;99.90;;;;;;5032944;28;20203;-56
2021/12/24 04:25:00;;;;;;;22.20;17.47;;;4.70;99.90;;;;;;5032405;28;20210;-54
2021/12/24 04:27:28;;;;;;;23.23;17.90;;;4.70;99.90;;;;;;5032667;28;20200;-54
2021/12/24 04:30:01;;;;;;;21.73;17.30;;;4.70;99.90;;;;;;5032694;28;20164;-57
2021/12/24 04:32:36;;;;;;;22.77;18.30;;;4.60;99.90;;;;;;5032587;28;20164;-55
2021/12/24 04:35:17;;;;;;;21.27;17.70;;;4.60;99.90;;;;;;5031845;28;20163;-52
2021/12/24 04:51:42;;;;;;;21.57;16.87;;;4.60;99.90;;;;;;5032608;28;20663;-56
2021/12/24 05:02:33;;;;;;;21.23;17.20;;;4.70;99.90;;;;;;5032579;28;20737;-52
2021/12/24 05:05:10;;;;;;;23.10;17.53;;;4.70;99.90;;;;;;5031771;28;20196;-53
2021/12/24 05:10:02;;;;;;;25.37;20.27;;;4.70;99.90;;;;;;5032368;28;20263;-53
2021/12/24 05:12:29;;;;;;;21.87;18.10;;;4.70;99.90;;;;;;5031832;28;20683;-51
2021/12/24 05:14:56;;;;;;;21.40;17.97;;;4.70;99.90;;;;;;5031654;28;20184;-52
2021/12/24 05:17:30;;;;;;;24.37;19.20;;;4.70;99.90;;;;;;5032045;28;20171;-50
2021/12/24 05:22:40;;;;;;;22.53;19.00;;;4.80;99.90;;;;;;5031763;28;20183;-52
2021/12/24 05:25:06;;;;;;;22.40;18.43;;;4.80;99.90;;;;;;5031576;28;20545;-52
2021/12/24 05:27:32;;;;;;;24.20;18.37;;;4.90;99.90;;;;;;5031805;28;20210;-52
2021/12/24 05:29:57;;;;;;;22.20;18.13;;;4.90;99.90;;;;;;5031731;28;20167;-53
2021/12/24 05:32:23;;;;;;;23.80;20.53;;;4.90;99.90;;;;;;5031787;28;20167;-57
2021/12/24 05:34:49;;;;;;;20.77;17.40;;;4.80;99.90;;;;;;5031307;28;20184;-50
2021/12/24 05:37:14;;;;;;;21.70;17.33;;;4.80;99.90;;;;;;5031797;28;20183;-49
2021/12/24 05:39:40;;;;;;;21.40;17.17;;;4.80;99.90;;;;;;5031694;28;20641;-51
2021/12/24 05:42:06;;;;;;;22.13;18.63;;;4.70;99.90;;;;;;5031598;28;20185;-58
2021/12/24 05:44:32;;;;;;;20.77;16.80;;;4.50;99.90;;;;;;5031442;28;20207;-55
2021/12/24 05:47:02;;;;;;;20.27;17.10;;;4.50;99.90;;;;;;5034771;28;20238;-53
2021/12/24 05:49:27;;;;;;;20.43;17.47;;;4.60;99.90;;;;;;5035554;28;20172;-52
2021/12/24 05:51:53;;;;;;;21.37;17.43;;;4.60;99.90;;;;;;5035615;28;20168;-52
2021/12/24 05:54:18;;;;;;;21.90;16.23;;;4.70;99.90;;;;;;5035537;28;20192;-55
2021/12/24 05:56:45;;;;;;;20.37;17.23;;;4.70;99.90;;;;;;5035228;28;20179;-53
2021/12/24 05:59:11;;;;;;;20.57;17.10;;;4.70;99.90;;;;;;5035578;28;20172;-53
2021/12/24 06:01:37;;;;;;;21.40;18.10;;;4.70;99.90;;;;;;5035337;28;20711;-54
2021/12/24 06:04:03;;;;;;;21.60;16.90;;;4.60;99.90;;;;;;5035333;28;20672;-56
2021/12/24 06:06:28;;;;;;;20.20;16.03;;;4.60;99.90;;;;;;5034996;28;20561;-55
2021/12/24 06:08:54;;;;;;;21.63;17.50;;;4.60;99.90;;;;;;5035445;28;20187;-51
2021/12/24 06:11:20;;;;;;;25.80;19.00;;;4.50;99.90;;;;;;5035040;28;20302;-50
2021/12/24 06:13:46;;;;;;;20.27;16.83;;;4.30;99.90;;;;;;5035249;28;20214;-57
2021/12/24 06:16:12;;;;;;;19.83;16.83;;;4.30;99.90;;;;;;5034340;28;20247;-53
2021/12/24 06:18:40;;;;;;;19.03;15.30;;;4.30;99.90;;;;;;5027887;28;20256;-52
2021/12/24 06:21:07;;;;;;;19.67;16.43;;;4.30;99.90;;;;;;5015313;28;20568;-56
2021/12/24 06:23:34;;;;;;;21.33;17.37;;;4.40;99.90;;;;;;5029227;28;20203;-51
2021/12/24 06:26:00;;;;;;;21.53;17.17;;;4.50;99.90;;;;;;5034615;28;20183;-54
2021/12/24 06:28:27;;;;;;;19.90;16.47;;;4.50;99.90;;;;;;5035077;28;20211;-55
2021/12/24 06:30:53;;;;;;;20.90;17.50;;;4.70;99.90;;;;;;5034546;28;20198;-58
2021/12/24 06:33:19;;;;;;;21.07;17.87;;;4.70;99.90;;;;;;5034616;28;20184;-52
2021/12/24 06:35:45;;;;;;;23.33;19.43;;;4.70;99.90;;;;;;5034499;28;20179;-54
2021/12/24 06:38:11;;;;;;;22.87;17.93;;;4.70;99.90;;;;;;5034631;28;20179;-56
2021/12/24 06:40:38;;;;;;;22.30;18.63;;;4.70;99.90;;;;;;5034841;28;20172;-52
2021/12/24 06:43:04;;;;;;;23.33;19.10;;;4.70;99.90;;;;;;5034484;28;20203;-58
2021/12/24 06:45:33;;;;;;;21.80;17.87;;;4.80;99.90;;;;;;5034406;28;20168;-55
2021/12/24 06:48:00;;;;;;;21.90;17.67;;;4.80;99.90;;;;;;5034573;28;20199;-51
2021/12/24 06:50:26;;;;;;;25.73;21.20;;;4.90;99.90;;;;;;5034603;28;20237;-54
2021/12/24 06:52:53;;;;;;;23.27;17.93;;;5.00;99.90;;;;;;5034340;28;20637;-54
2021/12/24 06:55:19;;;;;;;20.97;18.07;;;5.00;99.90;;;;;;5034198;28;20266;-53
2021/12/24 06:57:45;;;;;;;21.03;17.10;;;5.00;99.90;;;;;;5033887;28;20219;-55
2021/12/24 07:00:14;;;;;;;22.97;18.50;;;5.00;99.90;;;;;;5034178;28;20714;-53
2021/12/24 07:02:40;;;;;;;22.60;18.37;;;4.90;99.90;;;;;;5034120;28;20175;-55
2021/12/24 07:05:07;;;;;;;21.27;17.13;;;5.00;99.90;;;;;;5033737;28;20290;-57
2021/12/24 07:07:33;;;;;;;20.40;16.87;;;5.00;99.90;;;;;;5034355;28;20210;-56
2021/12/24 07:09:58;;;;;;;20.63;17.63;;;5.10;99.90;;;;;;5033505;28;20582;-53
2021/12/24 07:12:24;;;;;;;22.00;17.97;;;5.20;99.90;;;;;;5027012;28;20195;-54
2021/12/24 07:14:50;;;;;;;20.87;16.93;;;5.20;99.90;;;;;;5013777;28;20452;-56
2021/12/24 07:17:16;;;;;;;21.20;17.40;;;5.20;99.90;;;;;;5027662;28;20176;-56
2021/12/24 07:19:42;;;;;;;21.40;16.87;;;5.20;99.90;;;;;;5033922;28;20171;-56
2021/12/24 07:22:07;;;;;;;20.33;16.53;;;5.20;99.90;;;;;;5033932;28;20172;-56
2021/12/24 07:24:37;;;;;;;19.20;15.93;;;5.30;99.90;;;;;;5033603;28;20208;-56
2021/12/24 07:27:03;;;;;;;17.67;14.50;;;5.30;99.90;;;;;;5034672;28;20287;-52
2021/12/24 07:29:29;;;;;;;18.13;15.60;;;5.30;99.90;;;;;;5029289;28;20179;-55
2021/12/24 07:31:55;;;;;;;15.77;12.90;;;5.20;99.90;;;;;;5032649;28;20645;-53
2021/12/24 07:34:20;;;;;;;18.70;15.40;;;5.10;99.90;;;;;;5038055;28;20210;-56
2021/12/24 07:36:46;;;;;;;18.97;15.27;;;5.00;99.90;;;;;;4980092;28;20188;-52
2021/12/24 07:39:12;;;;;;;19.17;15.40;;;5.00;99.90;;;;;;5014063;28;20184;-55
2021/12/24 07:41:38;;;;;;;16.53;14.20;;;5.00;99.90;;;;;;5024844;28;20188;-56
2021/12/24 07:44:04;;;;;;;17.47;14.50;;;5.00;99.90;;;;;;5039191;28;20204;-55
2021/12/24 07:46:42;;;;;;;17.67;15.47;;;5.10;99.90;;;;;;5033933;28;20211;-54
2021/12/24 07:49:29;;;;;;;20.20;16.20;;;5.10;99.90;;;;;;5033476;28;20168;-52
2021/12/24 07:54:29;;;;;;;19.57;16.67;;;5.10;99.90;;;;;;5029349;28;20230;-54
2021/12/24 07:56:55;;;;;;;18.70;15.40;;;5.10;99.90;;;;;;5028004;28;20493;-53
2021/12/24 07:59:21;;;;;;;19.13;15.47;;;5.10;99.90;;;;;;5030272;28;20187;-53
2021/12/24 08:01:47;;;;;;;21.80;17.50;;;5.10;99.90;;;;;;5032811;28;20180;-49
2021/12/24 08:04:14;;;;;;;18.87;15.60;;;5.20;99.90;;;;;;5032418;28;20223;-55
2021/12/24 08:06:39;;;;;;;18.33;15.40;;;5.30;99.90;;;;;;5032827;28;20203;-52
2021/12/24 08:09:07;;;;;;;18.00;15.73;;;5.30;99.90;;;;;;5031710;28;20549;-50
2021/12/24 08:11:33;;;;;;;21.43;16.43;;;5.40;99.90;;;;;;5032378;28;20168;-52
2021/12/24 08:14:01;;;;;;;17.87;14.83;;;5.50;99.90;;;;;;5031344;28;20278;-56
2021/12/24 08:16:27;;;;;;;18.93;15.90;;;5.50;99.90;;;;;;5032248;28;20176;-54
2021/12/24 08:18:53;;;;;;;21.13;16.83;;;5.50;99.90;;;;;;5032977;28;20215;-52
2021/12/24 08:21:18;;;;;;;20.37;16.63;;;5.50;99.90;;;;;;5030702;28;20179;-51
2021/12/24 08:23:45;;;;;;;18.40;15.67;;;5.50;99.90;;;;;;5031863;28;20223;-52
2021/12/24 08:26:12;;;;;;;20.13;17.00;;;5.40;99.90;;;;;;5031302;28;20179;-48
2021/12/24 08:28:38;;;;;;;21.13;16.73;;;5.60;99.90;;;;;;5032361;28;20176;-53
2021/12/24 08:31:04;;;;;;;20.07;16.27;;;5.50;99.90;;;;;;5032213;28;20168;-49
2021/12/24 08:33:29;;;;;;;19.90;16.53;;;5.60;99.90;;;;;;5032145;28;20218;-51
2021/12/24 08:35:55;;;;;;;20.30;15.47;;;5.70;99.90;;;;;;5014476;28;20179;-52
2021/12/24 08:38:21;;;;;;;20.70;17.33;;;5.70;99.90;;;;;;5032161;28;20190;-52
2021/12/24 08:40:46;;;;;;;20.77;16.77;;;5.80;99.90;;;;;;5032083;28;20222;-55
2021/12/24 08:43:12;;;;;;;19.37;17.17;;;5.90;99.90;;;;;;5032228;28;20203;-51
2021/12/24 08:45:38;;;;;;;18.67;15.63;;;5.80;99.90;;;;;;5031919;28;20176;-51
2021/12/24 08:48:04;;;;;;;20.00;15.97;;;5.90;99.90;;;;;;5013964;28;20210;-48
2021/12/24 08:50:29;;;;;;;21.63;17.90;;;5.90;99.90;;;;;;5031949;28;20222;-48
2021/12/24 08:52:55;;;;;;;21.23;17.87;;;5.90;99.90;;;;;;5031589;28;20267;-52
2021/12/24 08:55:20;;;;;;;19.53;17.37;;;5.80;99.90;;;;;;5031830;28;20775;-51
2021/12/24 08:57:46;;;;;;;21.73;17.87;;;5.80;99.90;;;;;;5031630;28;20677;-49
2021/12/24 09:00:14;;;;;;;21.77;17.73;;;5.90;99.90;;;;;;5031885;28;20172;-51
2021/12/24 09:02:40;;;;;;;42.10;31.13;;;5.90;99.90;;;;;;5031865;28;20208;-48
2021/12/24 09:05:07;;;;;;;105.67;70.17;;;6.00;99.90;;;;;;5031232;28;20215;-46
2021/12/24 09:07:33;;;;;;;69.23;47.10;;;6.10;99.90;;;;;;5031879;28;20203;-49
2021/12/24 09:09:59;;;;;;;54.30;39.43;;;6.00;99.90;;;;;;5014226;28;20259;-51
2021/12/24 09:12:24;;;;;;;38.70;29.13;;;6.00;99.90;;;;;;5032054;28;20218;-54
2021/12/24 09:14:50;;;;;;;24.83;19.93;;;6.00;99.90;;;;;;5031618;28;20723;-50
2021/12/24 09:17:16;;;;;;;21.67;17.53;;;6.10;99.90;;;;;;5032051;28;20179;-49
2021/12/24 09:19:47;;;;;;;17.73;14.90;;;6.20;99.90;;;;;;5031810;28;20207;-51
2021/12/24 09:22:16;;;;;;;19.90;16.20;;;6.20;99.90;;;;;;5031195;28;20183;-55
2021/12/24 09:24:43;;;;;;;18.17;15.80;;;6.30;99.90;;;;;;5031268;28;20565;-49
2021/12/24 09:27:10;;;;;;;14.80;12.43;;;6.30;99.90;;;;;;5014117;28;20207;-53
2021/12/24 09:29:35;;;;;;;14.93;11.30;;;6.30;99.90;;;;;;5031621;28;20171;-56
2021/12/24 09:32:01;;;;;;;14.60;12.47;;;6.40;99.90;;;;;;5031746;28;20556;-51
2021/12/24 09:34:27;;;;;;;14.57;11.80;;;6.50;99.90;;;;;;5031598;28;20255;-51
2021/12/24 09:36:52;;;;;;;14.07;12.47;;;6.60;99.90;;;;;;5031207;28;20191;-52
2021/12/24 09:39:18;;;;;;;15.97;13.43;;;6.70;99.90;;;;;;5031695;28;20207;-53
2021/12/24 09:41:44;;;;;;;17.23;13.53;;;6.70;99.90;;;;;;5031509;28;20184;-50
2021/12/24 09:44:10;;;;;;;17.13;13.80;;;6.70;99.90;;;;;;5031577;28;20215;-57
2021/12/24 09:46:40;;;;;;;15.60;13.80;;;6.70;99.90;;;;;;5031095;28;20621;-51
2021/12/24 09:49:07;;;;;;;18.30;14.70;;;6.80;99.90;;;;;;5031883;28;20171;-52
2021/12/24 09:51:37;;;;;;;18.67;16.17;;;6.70;99.90;;;;;;5031318;28;20168;-56
2021/12/24 09:54:14;;;;;;;17.50;14.57;;;6.70;99.90;;;;;;5031411;28;20195;-54
2021/12/24 09:56:40;;;;;;;17.57;15.33;;;6.70;99.90;;;;;;5031037;28;20198;-53
2021/12/24 09:59:06;;;;;;;17.50;14.63;;;6.60;99.90;;;;;;5031515;28;20172;-50
2021/12/24 10:01:34;;;;;;;16.10;12.83;;;6.60;99.90;;;;;;5030837;28;20210;-54
2021/12/24 10:04:07;;;;;;;15.17;12.87;;;6.70;99.90;;;;;;5030588;28;20196;-57
2021/12/24 10:06:33;;;;;;;16.23;12.90;;;6.70;99.90;;;;;;5030691;28;20200;-54
2021/12/24 10:09:11;;;;;;;14.97;12.77;;;6.70;99.90;;;;;;5031291;28;20167;-52
2021/12/24 10:11:58;;;;;;;14.10;12.50;;;6.70;99.90;;;;;;5031470;28;20179;-53
2021/12/24 10:14:33;;;;;;;15.33;12.33;;;6.70;99.90;;;;;;5031229;28;20202;-51
2021/12/24 10:17:00;;;;;;;15.10;13.00;;;6.70;99.90;;;;;;5030939;28;20180;-51
2021/12/24 10:19:26;;;;;;;14.73;13.17;;;6.70;99.90;;;;;;5034228;28;20257;-50
2021/12/24 10:21:59;;;;;;;15.03;13.20;;;6.70;99.90;;;;;;5030571;28;20270;-53
2021/12/24 10:27:47;;;;;;;14.00;11.57;;;6.80;99.90;;;;;;5026715;28;20238;-53
2021/12/24 10:30:18;;;;;;;14.60;12.33;;;6.80;99.90;;;;;;5031156;28;20274;-55
2021/12/24 10:32:44;;;;;;;16.07;12.57;;;6.90;99.90;;;;;;5032677;28;20610;-56
2021/12/24 10:35:25;;;;;;;14.27;11.97;;;6.90;99.90;;;;;;5034676;28;20231;-56
2021/12/24 10:38:11;;;;;;;13.23;11.10;;;7.00;99.90;;;;;;5034919;28;20180;-53
2021/12/24 10:40:51;;;;;;;14.43;12.00;;;7.00;99.90;;;;;;5036107;28;20237;-53
2021/12/24 10:43:34;;;;;;;13.90;11.93;;;7.00;99.90;;;;;;5034869;28;20524;-56
2021/12/24 10:46:14;;;;;;;14.00;11.53;;;7.10;99.90;;;;;;5034208;28;20265;-50
2021/12/24 10:48:57;;;;;;;13.40;11.10;;;7.10;99.90;;;;;;5033807;28;20632;-55
2021/12/24 10:51:52;;;;;;;10.77;9.23;;;7.10;99.90;;;;;;5013456;28;20230;-55
2021/12/24 10:54:08;;;;;;;9.40;8.27;;;7.10;99.90;;;;;;5027351;28;20187;-54
2021/12/24 10:56:34;;;;;;;10.83;8.87;;;7.10;99.90;;;;;;5034133;28;20262;-52
2021/12/24 10:59:01;;;;;;;10.30;8.93;;;7.20;99.90;;;;;;5033884;28;20179;-56
2021/12/24 11:01:27;;;;;;;12.90;10.67;;;7.30;99.90;;;;;;5033918;28;20258;-57
2021/12/24 11:03:52;;;;;;;13.00;11.27;;;7.30;99.90;;;;;;5034242;28;20274;-58
2021/12/24 11:06:20;;;;;;;13.90;12.13;;;7.30;99.90;;;;;;5033807;28;20203;-58
2021/12/24 11:08:53;;;;;;;15.90;13.57;;;7.30;99.90;;;;;;5033966;28;20174;-55
2021/12/24 11:11:20;;;;;;;20.43;15.20;;;7.30;99.90;;;;;;5034180;28;20190;-52
2021/12/24 11:13:47;;;;;;;24.87;20.27;;;7.20;99.90;;;;;;5033933;28;20178;-53
2021/12/24 11:16:21;;;;;;;20.87;15.77;;;7.30;99.90;;;;;;5032505;28;20179;-56
2021/12/24 11:18:57;;;;;;;19.73;14.10;;;7.30;99.90;;;;;;5033149;28;20164;-51
2021/12/24 11:21:24;;;;;;;15.77;12.50;;;7.30;99.90;;;;;;5039452;28;20175;-56
2021/12/24 11:23:51;;;;;;;15.33;12.77;;;7.30;99.90;;;;;;5034503;28;20172;-52
2021/12/24 11:26:30;;;;;;;11.87;9.63;;;7.30;99.90;;;;;;5033268;28;20533;-56
2021/12/24 11:28:56;;;;;;;13.67;11.47;;;7.40;99.90;;;;;;5032949;28;20206;-54
2021/12/24 11:31:30;;;;;;;12.33;11.03;;;7.40;99.90;;;;;;5033774;28;20176;-53
2021/12/24 11:33:58;;;;;;;11.57;10.17;;;7.40;99.90;;;;;;5033231;28;20172;-55
2021/12/24 11:36:26;;;;;;;18.87;14.63;;;7.40;99.90;;;;;;5033197;28;20288;-52
2021/12/24 11:39:06;;;;;;;15.40;13.10;;;7.50;99.90;;;;;;5033430;28;20180;-53
2021/12/24 11:41:32;;;;;;;16.40;13.23;;;7.40;99.90;;;;;;5031548;28;20174;-53
2021/12/24 11:44:01;;;;;;;15.00;11.83;;;7.40;99.90;;;;;;5031380;28;20183;-52
2021/12/24 11:46:26;;;;;;;12.77;10.30;;;7.40;99.90;;;;;;5026478;28;20713;-54
2021/12/24 11:48:54;;;;;;;12.60;10.17;;;7.40;99.90;;;;;;5032553;28;20175;-56
2021/12/24 11:51:25;;;;;;;10.10;8.57;;;7.40;99.90;;;;;;5014505;28;20179;-54
2021/12/24 11:53:56;;;;;;;12.60;9.80;;;7.40;99.90;;;;;;5029968;28;20204;-56
2021/12/24 11:56:23;;;;;;;11.43;9.50;;;7.40;99.90;;;;;;5028957;28;20203;-53
2021/12/24 11:58:54;;;;;;;11.10;9.30;;;7.40;99.90;;;;;;5036874;28;20837;-50
2021/12/24 12:01:23;;;;;;;10.43;8.83;;;7.30;99.90;;;;;;5030878;28;20206;-52
2021/12/24 12:03:52;;;;;;;10.83;8.77;;;7.30;99.90;;;;;;5030571;28;20164;-52
2021/12/24 12:06:17;;;;;;;11.77;10.00;;;7.30;99.90;;;;;;5027665;28;20196;-55
2021/12/24 12:08:48;;;;;;;10.10;8.77;;;7.30;99.90;;;;;;5031137;28;20176;-54
2021/12/24 12:11:13;;;;;;;10.40;8.80;;;7.30;99.90;;;;;;5031300;28;20668;-55
2021/12/24 12:14:14;;;;;;;11.40;9.40;;;7.30;99.90;;;;;;5028423;28;20215;-54
2021/12/24 12:16:42;;;;;;;10.33;8.90;;;7.50;99.90;;;;;;4949205;29;20185;-56
2021/12/24 12:19:20;;;;;;;10.90;9.43;;;7.60;99.90;;;;;;4951974;29;20277;-55
2021/12/24 12:27:26;;;;;;;15.47;11.13;;;7.70;99.90;;;;;;4949360;29;20296;-56
2021/12/24 12:29:51;;;;;;;13.87;11.80;;;7.70;99.90;;;;;;4949640;29;20261;-56
2021/12/24 12:32:17;;;;;;;13.40;10.43;;;7.50;99.90;;;;;;4949936;29;20265;-57
2021/12/24 12:34:42;;;;;;;12.33;10.83;;;7.50;99.90;;;;;;4949521;29;20494;-52
2021/12/24 12:37:22;;;;;;;11.73;9.60;;;9.00;99.90;;;;;;4945987;28;20610;-52
2021/12/24 12:39:51;;;;;;;10.37;8.60;;;7.60;99.90;;;;;;4942799;28;20591;-56
2021/12/24 12:42:18;;;;;;;10.67;8.77;;;7.70;99.90;;;;;;4932845;29;20190;-55
2021/12/24 12:44:51;;;;;;;9.50;7.60;;;7.70;99.90;;;;;;4934853;29;20213;-54
2021/12/24 12:47:22;;;;;;;11.50;8.37;;;7.70;99.90;;;;;;4951229;29;20590;-55
2021/12/24 12:49:51;;;;;;;9.43;7.63;;;7.80;99.90;;;;;;4962968;28;20172;-57
2021/12/24 12:52:32;;;;;;;10.43;7.87;;;7.80;99.90;;;;;;5032034;28;20325;-58
2021/12/24 12:54:58;;;;;;;10.03;7.67;;;7.80;99.90;;;;;;5030523;28;20187;-51
2021/12/24 12:57:32;;;;;;;9.03;8.13;;;7.90;99.90;;;;;;5026588;28;20199;-57
2021/12/24 13:00:19;;;;;;;8.50;7.60;;;7.90;99.90;;;;;;5040229;28;20170;-50
2021/12/24 13:02:56;;;;;;;8.70;7.30;;;7.90;99.90;;;;;;5045291;28;20220;-54
2021/12/24 13:05:25;;;;;;;9.53;7.83;;;7.90;99.90;;;;;;5039437;28;20672;-56
2021/12/24 13:07:51;;;;;;;10.33;8.07;;;8.00;99.90;;;;;;5032095;28;20203;-55
2021/12/24 13:10:18;;;;;;;9.80;7.70;;;;;;;;;;5031890;28;20262;-56
2021/12/24 13:12:44;;;;;;;8.97;7.30;;;8.00;99.90;;;;;;5031922;28;20745;-55
2021/12/24 13:15:16;;;;;;;9.20;7.10;;;;;;;;;;5037602;28;20251;-59
2021/12/24 13:17:48;;;;;;;9.37;7.97;;;8.20;99.90;;;;;;5051829;28;20182;-58
2021/12/24 13:20:31;;;;;;;9.60;7.90;;;8.20;99.90;;;;;;5051225;28;20179;-55
2021/12/24 13:22:56;;;;;;;8.73;7.50;;;7.70;99.90;;;;;;5051506;28;20179;-57
2021/12/24 13:25:23;;;;;;;9.23;7.70;;;7.90;99.90;;;;;;5036079;28;20214;-54
2021/12/24 13:27:53;;;;;;;9.40;7.63;;;8.00;99.90;;;;;;5027646;28;20215;-52
2021/12/24 13:30:20;;;;;;;8.23;7.00;;;8.00;99.90;;;;;;5029901;28;20234;-52
2021/12/24 13:32:51;;;;;;;9.53;7.93;;;7.70;99.90;;;;;;5030651;28;20167;-50
2021/12/24 13:35:22;;;;;;;8.83;7.67;;;8.00;99.90;;;;;;5030760;28;20203;-54
2021/12/24 13:37:48;;;;;;;8.80;7.53;;;8.20;99.90;;;;;;5029468;28;20207;-53
2021/12/24 13:40:20;;;;;;;8.70;7.40;;;7.80;99.90;;;;;;5030856;28;20187;-55
2021/12/24 13:42:54;;;;;;;9.20;7.43;;;7.90;99.90;;;;;;5031233;28;20172;-55
2021/12/24 13:45:21;;;;;;;9.20;7.17;;;7.30;99.90;;;;;;5029859;28;20341;-50
2021/12/24 13:54:31;;;;;;;9.93;7.90;;;7.80;99.90;;;;;;5030807;28;20207;-53
2021/12/24 13:56:00;;;;;;;9.87;7.77;;;8.20;99.90;;;;;;5030595;28;20611;-50
2021/12/24 13:58:26;;;;;;;10.73;8.40;;;7.90;99.90;;;;;;5030558;28;20168;-51
2021/12/24 14:00:57;;;;;;;10.20;8.60;;;7.90;99.90;;;;;;5031209;28;20187;-55
2021/12/24 14:03:26;;;;;;;9.00;7.57;;;8.50;99.90;;;;;;5030748;28;20171;-53
2021/12/24 14:05:55;;;;;;;9.17;7.80;;;8.30;99.90;;;;;;5039600;28;20260;-52
2021/12/24 14:08:29;;;;;;;10.27;8.87;;;8.00;99.90;;;;;;5048499;28;20294;-57
2021/12/24 14:11:14;;;;;;;9.80;8.13;;;8.00;99.90;;;;;;5015462;28;20172;-53
2021/12/24 14:13:45;;;;;;;10.47;8.20;;;8.10;99.90;;;;;;5031087;28;20183;-52
2021/12/24 14:18:52;;;;;;;10.77;8.50;;;;;;;;;;5031322;28;20234;-53
2021/12/24 14:24:33;;;;;;;11.33;9.37;;;8.10;99.90;;;;;;5031756;28;20182;-55
2021/12/24 14:27:05;;;;;;;9.07;8.13;;;7.80;99.90;;;;;;5007317;28;20200;-53
2021/12/24 14:29:31;;;;;;;10.97;8.60;;;;;;;;;;5030423;28;20168;-53
2021/12/24 14:31:57;;;;;;;9.50;8.13;;;;;;;;;;5031804;28;20187;-54
2021/12/24 14:34:47;;;;;;;8.87;7.97;;;7.60;99.90;;;;;;5030615;28;20199;-56
2021/12/24 14:37:27;;;;;;;8.67;7.77;;;8.00;99.90;;;;;;5031233;28;20238;-56